Time;durP1;ratioP1;P1;durP2;ratioP2;P2;SDS_P1;SDS_P2;PMS_P1;PMS_P2;Temp;Humidity;BMP_temperature;BMP_pressure;BME280_temperature;BME280_humidity;BME280_pressure;Samples;Min_cycle;Max_cycle;Signal;HPM_P1;HPM_P2
2022/06/23 00:01:45;;;;;;;2.20;1.70;;;16.00;99.90;;;;;;6214147;23;20040;-83
2022/06/23 00:04:20;;;;;;;3.92;1.80;;;15.90;99.90;;;;;;6214088;23;20503;-83
2022/06/23 00:06:59;;;;;;;1.80;1.55;;;15.90;99.90;;;;;;6213822;23;20020;-83
2022/06/23 00:09:46;;;;;;;2.08;1.63;;;15.90;99.90;;;;;;6189218;23;20020;-83
2022/06/23 00:12:18;;;;;;;1.70;1.50;;;15.90;99.90;;;;;;6213865;23;20023;-83
2022/06/23 00:14:48;;;;;;;2.30;1.73;;;15.80;99.90;;;;;;6188172;23;20020;-84
2022/06/23 00:17:58;;;;;;;1.60;1.50;;;15.80;99.90;;;;;;6190336;23;20449;-83
2022/06/23 00:20:34;;;;;;;5.95;2.72;;;15.80;99.90;;;;;;6070029;23;20033;-83
2022/06/23 00:23:10;;;;;;;2.90;1.98;;;15.70;99.90;;;;;;6201281;23;20103;-83
2022/06/23 00:25:44;;;;;;;3.47;1.93;;;15.70;99.90;;;;;;6214214;23;20023;-83
2022/06/23 00:28:41;;;;;;;1.85;1.65;;;15.60;99.90;;;;;;6214196;23;20058;-83
2022/06/23 00:31:26;;;;;;;4.38;2.15;;;15.60;99.90;;;;;;6181519;23;20082;-83
2022/06/23 00:33:52;;;;;;;2.63;2.05;;;15.60;99.90;;;;;;6188607;23;20103;-84
2022/06/23 00:36:38;;;;;;;2.10;1.88;;;15.50;99.90;;;;;;6139586;23;20031;-83
2022/06/23 00:39:19;;;;;;;4.07;1.90;;;15.50;99.90;;;;;;6188403;23;20013;-83
2022/06/23 00:41:47;;;;;;;1.63;1.52;;;15.60;99.90;;;;;;6213588;23;20016;-84
2022/06/23 00:44:27;;;;;;;2.65;1.35;;;15.50;99.90;;;;;;6213850;23;20055;-83
2022/06/23 00:46:55;;;;;;;2.75;1.70;;;15.50;99.90;;;;;;6215007;23;20062;-83
2022/06/23 00:49:46;;;;;;;4.57;2.22;;;15.50;99.90;;;;;;6188881;23;20020;-83
2022/06/23 00:52:29;;;;;;;2.80;1.95;;;15.50;99.90;;;;;;6213971;23;20017;-83
2022/06/23 00:54:59;;;;;;;2.50;1.98;;;15.40;99.90;;;;;;6213471;23;20024;-83
2022/06/23 00:57:36;;;;;;;2.67;2.15;;;15.40;99.90;;;;;;6213823;23;20021;-83
2022/06/23 01:00:17;;;;;;;2.78;2.20;;;15.30;99.90;;;;;;6214914;23;20027;-83
2022/06/23 01:02:49;;;;;;;2.80;2.28;;;15.30;99.90;;;;;;6215545;23;20017;-83
2022/06/23 01:05:24;;;;;;;3.35;2.35;;;15.30;99.90;;;;;;6215395;23;20023;-83
2022/06/23 01:08:03;;;;;;;3.08;2.03;;;15.20;99.90;;;;;;6187875;23;20020;-83
2022/06/23 01:10:35;;;;;;;2.67;2.13;;;15.10;99.90;;;;;;6213881;23;20039;-83
2022/06/23 01:13:26;;;;;;;2.90;2.50;;;15.10;99.90;;;;;;6213117;23;20023;-83
2022/06/23 01:16:05;;;;;;;3.92;2.60;;;15.10;99.90;;;;;;6213384;23;20020;-83
2022/06/23 01:18:37;;;;;;;3.42;2.20;;;15.10;99.90;;;;;;6214037;23;20021;-83
2022/06/23 01:21:19;;;;;;;4.25;2.10;;;15.10;99.90;;;;;;6213184;23;20338;-83
2022/06/23 01:24:08;;;;;;;3.60;2.30;;;15.00;99.90;;;;;;6215261;23;20096;-83
2022/06/23 01:26:43;;;;;;;3.50;2.20;;;15.00;99.90;;;;;;6215493;23;20075;-83
2022/06/23 01:29:25;;;;;;;2.60;2.22;;;15.00;99.90;;;;;;6214906;23;20441;-83
2022/06/23 01:31:56;;;;;;;3.17;2.58;;;15.00;99.90;;;;;;6215500;23;20090;-83
2022/06/23 01:34:38;;;;;;;2.78;2.20;;;14.90;99.90;;;;;;6216094;23;20107;-83
2022/06/23 01:37:17;;;;;;;3.75;2.15;;;15.00;99.90;;;;;;6215173;23;20021;-83
2022/06/23 01:40:22;;;;;;;2.47;2.03;;;14.90;99.90;;;;;;6190662;23;20016;-83
2022/06/23 01:43:15;;;;;;;3.03;1.80;;;14.90;99.90;;;;;;6215601;23;20092;-83
2022/06/23 01:46:06;;;;;;;4.30;1.83;;;14.90;99.90;;;;;;6215835;23;20058;-83
2022/06/23 01:48:54;;;;;;;2.65;2.40;;;14.80;99.90;;;;;;6190574;23;20021;-83
2022/06/23 01:51:30;;;;;;;3.88;2.92;;;14.80;99.90;;;;;;6215154;23;20016;-83
2022/06/23 01:54:20;;;;;;;4.50;2.63;;;14.80;99.90;;;;;;6215045;23;20028;-84
2022/06/23 01:57:05;;;;;;;4.72;2.53;;;14.80;99.90;;;;;;6215605;23;20020;-83
2022/06/23 02:00:07;;;;;;;3.60;2.60;;;14.80;99.90;;;;;;6190357;23;20056;-83
2022/06/23 02:02:53;;;;;;;3.92;2.55;;;14.80;99.90;;;;;;6215483;23;20017;-83
2022/06/23 02:05:49;;;;;;;2.75;1.98;;;14.80;99.90;;;;;;6217156;23;20019;-83
2022/06/23 02:08:40;;;;;;;3.92;2.60;;;14.70;99.90;;;;;;6162963;23;20020;-83
2022/06/23 02:11:32;;;;;;;4.57;2.85;;;14.70;99.90;;;;;;6189453;23;20043;-83
2022/06/23 02:14:16;;;;;;;2.92;2.40;;;14.70;99.90;;;;;;6214901;23;20348;-83
2022/06/23 02:16:59;;;;;;;3.75;2.40;;;14.60;99.90;;;;;;6215432;23;20012;-83
2022/06/23 02:19:37;;;;;;;3.80;3.13;;;14.60;99.90;;;;;;6215316;23;20026;-83
2022/06/23 02:22:13;;;;;;;3.38;2.55;;;14.60;99.90;;;;;;6214770;23;20052;-83
2022/06/23 02:24:54;;;;;;;3.97;2.75;;;14.60;99.90;;;;;;6215380;23;20067;-83
2022/06/23 02:27:37;;;;;;;4.78;2.53;;;14.60;99.90;;;;;;6214787;23;20013;-83
2022/06/23 02:30:03;;;;;;;5.40;3.00;;;14.50;99.90;;;;;;6214139;23;20017;-83
2022/06/23 02:33:07;;;;;;;3.47;2.97;;;14.50;99.90;;;;;;6215098;23;20024;-83
2022/06/23 02:35:48;;;;;;;3.88;2.65;;;14.50;99.90;;;;;;6164429;23;20019;-83
2022/06/23 02:38:33;;;;;;;5.63;3.45;;;14.50;99.90;;;;;;6213994;23;20392;-83
2022/06/23 02:41:01;;;;;;;4.03;2.72;;;14.50;99.90;;;;;;6216274;23;20070;-83
2022/06/23 02:43:38;;;;;;;3.53;2.83;;;14.40;99.90;;;;;;6214921;23;20017;-83
2022/06/23 02:46:32;;;;;;;5.57;3.55;;;14.40;99.90;;;;;;6189547;23;20024;-83
2022/06/23 02:49:21;;;;;;;4.32;3.15;;;14.40;99.90;;;;;;6189886;23;20055;-83
2022/06/23 02:52:12;;;;;;;4.18;3.17;;;14.40;99.90;;;;;;6214996;23;20025;-83
2022/06/23 02:55:23;;;;;;;5.22;3.22;;;14.30;99.90;;;;;;6215142;23;20025;-84
2022/06/23 02:58:13;;;;;;;4.50;3.35;;;14.40;99.90;;;;;;6182570;23;20346;-83
2022/06/23 03:01:08;;;;;;;5.05;4.03;;;14.40;99.90;;;;;;6215030;23;20024;-83
2022/06/23 03:04:01;;;;;;;4.80;3.10;;;14.40;99.90;;;;;;6214419;23;20020;-83
2022/06/23 03:06:43;;;;;;;6.88;3.67;;;14.30;99.90;;;;;;6214932;23;20017;-83
2022/06/23 03:09:36;;;;;;;8.38;4.43;;;14.40;99.90;;;;;;6214294;23;20017;-83
2022/06/23 03:12:13;;;;;;;4.88;3.25;;;14.30;99.90;;;;;;6214484;23;20338;-84
2022/06/23 03:15:12;;;;;;;6.63;4.15;;;14.30;99.90;;;;;;6216173;23;20027;-83
2022/06/23 03:17:46;;;;;;;4.93;4.05;;;14.30;99.90;;;;;;6139714;23;20078;-83
2022/06/23 03:20:47;;;;;;;6.50;3.90;;;14.30;99.90;;;;;;6214224;23;20085;-83
2022/06/23 03:23:42;;;;;;;5.32;3.75;;;14.30;99.90;;;;;;6214047;23;20013;-84
2022/06/23 03:26:29;;;;;;;5.20;4.68;;;14.20;99.90;;;;;;6214102;23;20519;-83
2022/06/23 03:29:16;;;;;;;5.93;3.42;;;14.30;99.90;;;;;;6216456;23;20342;-83
2022/06/23 03:32:09;;;;;;;4.97;3.72;;;14.30;99.90;;;;;;6246410;23;20024;-83
2022/06/23 03:34:42;;;;;;;5.40;3.75;;;14.30;99.90;;;;;;6194513;23;20016;-83
2022/06/23 03:37:19;;;;;;;6.07;4.10;;;14.30;99.90;;;;;;6245819;23;20015;-83
2022/06/23 03:43:10;;;;;;;4.22;2.92;;;14.20;99.90;;;;;;6219543;23;20039;-83
2022/06/23 03:45:44;;;;;;;7.53;3.38;;;14.20;99.90;;;;;;6219545;23;20016;-83
2022/06/23 03:48:28;;;;;;;5.63;3.50;;;14.30;99.90;;;;;;6245951;23;20127;-84
2022/06/23 03:51:14;;;;;;;4.55;3.65;;;14.30;99.90;;;;;;6194552;23;20016;-83
2022/06/23 03:54:13;;;;;;;4.97;3.55;;;14.30;99.90;;;;;;6219591;23;20026;-83
2022/06/23 03:56:50;;;;;;;8.07;4.90;;;14.30;99.90;;;;;;6219327;23;20078;-83
2022/06/23 03:59:36;;;;;;;4.43;3.55;;;14.30;99.90;;;;;;6245524;23;20016;-83
2022/06/23 04:02:15;;;;;;;8.38;4.30;;;14.30;99.90;;;;;;6219518;23;20016;-83
2022/06/23 04:04:53;;;;;;;6.78;3.13;;;14.30;99.90;;;;;;6219145;23;20047;-83
2022/06/23 04:07:28;;;;;;;6.97;3.38;;;14.30;99.90;;;;;;6218733;23;20016;-83
2022/06/23 04:10:01;;;;;;;9.48;4.03;;;14.30;99.90;;;;;;6194504;23;20020;-83
2022/06/23 04:12:29;;;;;;;5.28;3.97;;;14.30;99.90;;;;;;6218815;23;20027;-83
2022/06/23 04:15:11;;;;;;;4.13;3.50;;;14.30;99.90;;;;;;6219152;23;20109;-83
2022/06/23 04:17:45;;;;;;;8.45;3.95;;;14.30;99.90;;;;;;6219478;23;20020;-83
2022/06/23 04:20:16;;;;;;;5.75;3.47;;;14.30;99.90;;;;;;6218743;23;20016;-83
2022/06/23 04:23:20;;;;;;;6.60;4.63;;;14.30;99.90;;;;;;6219233;23;20058;-83
2022/06/23 04:26:14;;;;;;;7.30;4.82;;;14.30;99.90;;;;;;6119302;23;20065;-83
2022/06/23 04:28:48;;;;;;;6.35;3.80;;;14.40;99.90;;;;;;6193983;23;20016;-83
2022/06/23 04:31:36;;;;;;;4.43;3.35;;;14.40;99.90;;;;;;6218585;23;20016;-84
2022/06/23 04:34:02;;;;;;;8.13;4.80;;;14.40;99.90;;;;;;6219039;23;20023;-83
2022/06/23 04:36:32;;;;;;;5.57;4.05;;;14.40;99.90;;;;;;6168674;23;20016;-83
2022/06/23 04:39:35;;;;;;;5.68;4.30;;;14.40;99.90;;;;;;6193893;23;20020;-83
2022/06/23 04:42:25;;;;;;;7.97;4.53;;;14.40;99.90;;;;;;6193901;23;20020;-83
2022/06/23 04:44:58;;;;;;;4.90;3.83;;;14.50;99.90;;;;;;6218994;23;20016;-83
2022/06/23 04:47:31;;;;;;;7.78;4.30;;;14.50;99.90;;;;;;6218357;23;20059;-84
2022/06/23 04:50:01;;;;;;;7.80;4.03;;;14.50;99.90;;;;;;6219006;23;20020;-83
2022/06/23 04:52:54;;;;;;;6.07;4.18;;;14.60;99.90;;;;;;6218307;23;20016;-83
2022/06/23 04:55:31;;;;;;;9.02;4.85;;;14.70;99.90;;;;;;6211797;23;20022;-83
2022/06/23 04:58:17;;;;;;;8.90;4.32;;;14.70;99.90;;;;;;6218772;23;20464;-83
2022/06/23 05:00:46;;;;;;;7.28;3.90;;;14.90;99.90;;;;;;6218641;23;20507;-83
2022/06/23 05:03:21;;;;;;;6.40;3.72;;;14.90;99.90;;;;;;6245552;23;20055;-83
2022/06/23 05:05:59;;;;;;;6.20;4.40;;;15.00;99.90;;;;;;6218590;23;20448;-83
2022/06/23 05:08:30;;;;;;;6.10;3.75;;;15.10;99.90;;;;;;6218286;23;20047;-83
2022/06/23 05:11:11;;;;;;;5.63;3.80;;;15.20;99.90;;;;;;6219018;23;20064;-83
2022/06/23 05:13:43;;;;;;;8.32;3.70;;;15.30;99.90;;;;;;6245058;23;20012;-84
2022/06/23 05:16:38;;;;;;;5.57;3.80;;;15.40;99.90;;;;;;6245592;23;20325;-83
2022/06/23 05:19:20;;;;;;;7.07;4.07;;;15.60;99.90;;;;;;6211156;23;20020;-83
2022/06/23 05:21:51;;;;;;;9.60;3.95;;;15.70;99.90;;;;;;6218258;23;20031;-83
2022/06/23 05:24:24;;;;;;;6.85;4.93;;;15.80;99.90;;;;;;6218032;23;20024;-87
2022/06/23 05:26:55;;;;;;;4.53;3.67;;;16.00;99.90;;;;;;6218227;23;20024;-83
2022/06/23 05:29:33;;;;;;;7.82;4.85;;;16.10;99.90;;;;;;6218123;23;20016;-84
2022/06/23 05:32:10;;;;;;;7.25;4.10;;;16.20;99.90;;;;;;6218863;23;20024;-84
2022/06/23 05:34:54;;;;;;;10.23;3.78;;;16.40;99.90;;;;;;6221047;23;20099;-84
2022/06/23 05:37:33;;;;;;;5.95;4.13;;;16.50;99.90;;;;;;6218250;23;20016;-84
2022/06/23 05:40:14;;;;;;;5.78;3.88;;;16.70;99.90;;;;;;6218738;23;20395;-83
2022/06/23 05:42:45;;;;;;;5.43;3.75;;;16.80;99.90;;;;;;6221629;23;20016;-84
2022/06/23 05:45:25;;;;;;;6.90;4.65;;;16.90;99.90;;;;;;6245249;23;20051;-83
2022/06/23 05:47:53;;;;;;;7.22;4.47;;;17.00;99.90;;;;;;6218862;23;20020;-83
2022/06/23 05:50:28;;;;;;;4.68;3.92;;;17.20;99.90;;;;;;6193570;23;20031;-83
2022/06/23 05:53:27;;;;;;;5.35;3.78;;;17.30;99.90;;;;;;6218635;23;20091;-84
2022/06/23 05:56:06;;;;;;;5.80;3.75;;;17.40;99.90;;;;;;6137965;23;20020;-83
2022/06/23 05:59:01;;;;;;;8.00;3.85;;;17.50;99.90;;;;;;6218295;23;20095;-83
2022/06/23 06:01:49;;;;;;;5.05;3.40;;;17.60;99.90;;;;;;6220126;23;20016;-84
2022/06/23 06:04:45;;;;;;;6.20;4.00;;;17.70;99.90;;;;;;6218465;23;20340;-84
2022/06/23 06:07:16;;;;;;;6.47;3.65;;;17.90;99.90;;;;;;6218692;23;20017;-84
2022/06/23 06:09:42;;;;;;;6.13;3.42;;;18.10;99.90;;;;;;6218058;23;20089;-84
2022/06/23 06:12:22;;;;;;;6.60;4.30;;;18.20;99.90;;;;;;6219760;23;20496;-84
2022/06/23 06:14:58;;;;;;;4.22;3.42;;;18.40;99.90;;;;;;6220388;23;20020;-83
2022/06/23 06:17:27;;;;;;;6.00;3.08;;;18.60;99.90;;;;;;6194798;23;20114;-84
2022/06/23 06:19:54;;;;;;;4.18;3.55;;;18.90;99.90;;;;;;6220272;23;20016;-84
2022/06/23 06:23:10;;;;;;;6.05;3.50;;;19.20;99.90;;;;;;6220070;23;20336;-83
2022/06/23 06:25:40;;;;;;;7.55;3.42;;;19.60;99.90;;;;;;6114320;23;20086;-84
2022/06/23 06:28:29;;;;;;;3.67;3.38;;;20.00;99.90;;;;;;6220255;23;20096;-84
2022/06/23 06:31:04;;;;;;;3.60;2.95;;;20.20;99.90;;;;;;6219773;23;20066;-84
2022/06/23 06:33:41;;;;;;;4.28;3.45;;;20.10;99.90;;;;;;6194613;23;20387;-84
2022/06/23 06:36:40;;;;;;;5.55;3.47;;;20.00;99.90;;;;;;6195245;23;20361;-84
2022/06/23 06:39:29;;;;;;;6.82;3.00;;;20.20;99.90;;;;;;6192426;23;20028;-84
2022/06/23 06:42:07;;;;;;;6.47;3.75;;;20.30;99.90;;;;;;6220228;23;20020;-84
2022/06/23 06:44:35;;;;;;;7.90;3.58;;;20.40;99.90;;;;;;6219036;23;20020;-84
2022/06/23 06:47:02;;;;;;;3.85;3.40;;;20.40;99.90;;;;;;6246725;23;20453;-84
2022/06/23 06:49:29;;;;;;;;;;;20.30;99.90;;;;;;6219615;23;20016;-85
2022/06/23 06:51:56;;;;;;;4.53;3.65;;;20.20;99.90;;;;;;6219972;23;20229;-83
2022/06/23 06:54:29;;;;;;;3.72;3.13;;;20.20;99.90;;;;;;6220391;23;20012;-84
2022/06/23 06:57:01;;;;;;;5.97;2.90;;;20.20;99.90;;;;;;6245699;23;20096;-84
2022/06/23 06:59:34;;;;;;;3.40;2.78;;;20.20;99.90;;;;;;6194529;23;20012;-88
2022/06/23 07:02:04;;;;;;;5.63;3.08;;;20.30;99.90;;;;;;6219507;23;20021;-84
2022/06/23 07:04:41;;;;;;;3.85;2.60;;;20.40;99.90;;;;;;6194120;23;20016;-84
2022/06/23 07:07:12;;;;;;;;;;;20.50;99.90;;;;;;6220392;23;20449;-84
2022/06/23 07:09:50;;;;;;;3.17;2.90;;;20.60;99.90;;;;;;6219358;23;20350;-84
2022/06/23 07:12:24;;;;;;;6.20;3.22;;;20.70;99.90;;;;;;6219852;23;20016;-84
2022/06/23 07:15:31;;;;;;;3.95;2.83;;;20.80;99.90;;;;;;6194284;23;20352;-84
2022/06/23 07:18:06;;;;;;;2.85;2.42;;;20.90;99.90;;;;;;6174936;23;20321;-83
2022/06/23 07:20:43;;;;;;;6.25;3.35;;;21.00;99.90;;;;;;6218858;23;20016;-85
2022/06/23 07:23:29;;;;;;;5.10;3.20;;;21.10;99.90;;;;;;6246136;23;20046;-84
2022/06/23 07:26:22;;;;;;;4.05;3.15;;;21.10;99.90;;;;;;6219150;23;20106;-84
2022/06/23 07:28:54;;;;;;;4.10;2.55;;;21.20;99.90;;;;;;6219072;23;20012;-84
2022/06/23 07:31:42;;;;;;;6.53;3.35;;;21.40;99.90;;;;;;6246599;23;20114;-84
2022/06/23 07:34:11;;;;;;;2.40;2.08;;;21.40;99.90;;;;;;6219624;23;20460;-84
2022/06/23 07:36:45;;;;;;;7.00;2.90;;;21.50;99.90;;;;;;6219053;23;20016;-84
2022/06/23 07:39:19;;;;;;;3.53;2.78;;;21.60;99.90;;;;;;6246469;23;20336;-84
2022/06/23 07:41:51;;;;;;;4.80;2.75;;;21.70;99.90;;;;;;6219265;23;20476;-85
2022/06/23 07:44:44;;;;;;;6.95;3.13;;;21.80;99.90;;;;;;6219638;23;20396;-84
2022/06/23 07:47:10;;;;;;;2.75;2.55;;;21.90;99.90;;;;;;6245851;23;20095;-84
2022/06/23 07:49:35;;;;;;;7.07;2.92;;;22.00;99.90;;;;;;6245833;23;20058;-84
2022/06/23 07:52:03;;;;;;;3.13;2.45;;;22.00;99.90;;;;;;6194319;23;20051;-84
2022/06/23 07:54:30;;;;;;;2.70;2.50;;;22.10;99.90;;;;;;6219247;23;20086;-84
2022/06/23 07:56:57;;;;;;;5.55;3.58;;;22.10;99.90;;;;;;6218848;23;20091;-84
2022/06/23 07:59:28;;;;;;;;;;;22.20;99.90;;;;;;6219763;23;20095;-84
2022/06/23 08:02:09;;;;;;;3.85;2.92;;;22.20;99.90;;;;;;6218827;23;19915;-84
2022/06/23 08:04:57;;;;;;;3.40;2.45;;;22.30;99.90;;;;;;6193816;23;20444;-88
2022/06/23 08:07:24;;;;;;;5.40;3.05;;;22.40;99.90;;;;;;6219242;23;20315;-83
2022/06/23 08:09:54;;;;;;;4.28;2.65;;;22.50;99.90;;;;;;6193829;23;20095;-84
2022/06/23 08:12:58;;;;;;;3.55;1.77;;;22.50;99.90;;;;;;6219174;23;20337;-83
2022/06/23 08:18:30;;;;;;;4.40;2.28;;;22.70;99.90;;;;;;6219255;23;20467;-84
2022/06/23 08:21:20;;;;;;;3.10;2.10;;;22.80;99.90;;;;;;6193545;23;20099;-83
2022/06/23 08:24:01;;;;;;;3.67;2.20;;;23.10;99.90;;;;;;6218476;23;20020;-84
2022/06/23 08:26:28;;;;;;;5.18;2.05;;;23.10;99.90;;;;;;6219366;23;20092;-83
2022/06/23 08:29:02;;;;;;;4.50;2.33;;;23.30;99.90;;;;;;6218448;23;20023;-83
2022/06/23 08:31:30;;;;;;;3.15;2.85;;;23.30;99.90;;;;;;6219022;23;20019;-84
2022/06/23 08:33:57;;;;;;;5.63;2.50;;;23.30;99.90;;;;;;6218417;23;20020;-84
2022/06/23 08:36:40;;;;;;;3.28;2.20;;;23.40;99.90;;;;;;6218736;23;20026;-84
2022/06/23 08:39:15;;;;;;;5.00;2.40;;;23.50;99.90;;;;;;6219253;23;20016;-84
2022/06/23 08:41:51;;;;;;;7.50;2.15;;;23.50;99.90;;;;;;6218472;23;20082;-84
2022/06/23 08:44:34;;;;;;;4.70;2.07;;;23.60;99.90;;;;;;6218941;23;20090;-84
2022/06/23 08:47:17;;;;;;;3.03;2.10;;;23.80;99.90;;;;;;6243687;23;20016;-83
2022/06/23 08:49:55;;;;;;;2.22;1.98;;;23.80;99.90;;;;;;6218325;23;20051;-83
2022/06/23 08:52:55;;;;;;;3.08;2.40;;;23.90;99.90;;;;;;6219190;23;20024;-83
2022/06/23 08:55:31;;;;;;;4.35;2.58;;;23.90;99.90;;;;;;6219006;23;20094;-83
2022/06/23 08:58:49;;;;;;;2.53;1.85;;;23.80;99.90;;;;;;6218371;23;20012;-84
2022/06/23 09:01:38;;;;;;;2.38;2.13;;;24.00;99.90;;;;;;6157990;23;20012;-83
2022/06/23 09:04:14;;;;;;;4.00;2.10;;;24.10;99.90;;;;;;6218189;23;20433;-83
2022/06/23 09:06:51;;;;;;;2.45;2.10;;;24.20;99.90;;;;;;6245708;23;20020;-83
2022/06/23 09:09:24;;;;;;;;;;;24.30;99.90;;;;;;6219296;23;20024;-83
2022/06/23 09:12:20;;;;;;;4.88;3.28;;;24.40;99.90;;;;;;6218221;23;20022;-83
2022/06/23 09:14:55;;;;;;;3.00;1.70;;;24.60;99.90;;;;;;6193241;23;20085;-84
2022/06/23 09:17:42;;;;;;;3.70;2.75;;;24.60;99.90;;;;;;6218684;23;20017;-84
2022/06/23 09:20:17;;;;;;;3.85;2.58;;;24.70;99.90;;;;;;6193379;23;20104;-83
2022/06/23 09:23:16;;;;;;;3.92;2.28;;;24.80;99.90;;;;;;6193660;23;20024;-83
2022/06/23 09:26:14;;;;;;;4.00;2.92;;;24.90;99.90;;;;;;6243859;23;20012;-83
2022/06/23 09:28:57;;;;;;;3.50;1.88;;;24.80;99.90;;;;;;6143432;23;20519;-83
2022/06/23 09:31:35;;;;;;;2.88;2.17;;;24.80;99.90;;;;;;6218104;23;20108;-83
2022/06/23 09:34:37;;;;;;;3.17;2.00;;;24.80;99.90;;;;;;6193082;23;20064;-84
2022/06/23 09:37:34;;;;;;;2.72;1.70;;;25.10;99.90;;;;;;6218124;23;20019;-83
2022/06/23 09:40:34;;;;;;;1.90;1.70;;;25.10;99.90;;;;;;6218133;23;20017;-84
2022/06/23 09:43:00;;;;;;;3.83;2.03;;;25.20;99.90;;;;;;6244960;23;20027;-83
2022/06/23 09:45:48;;;;;;;4.60;1.77;;;25.30;99.90;;;;;;6218445;23;20020;-83
2022/06/23 09:48:45;;;;;;;7.20;2.03;;;25.30;99.90;;;;;;6220971;23;20445;-83
2022/06/23 09:51:48;;;;;;;4.22;2.22;;;25.50;99.80;;;;;;6220154;23;20345;-84
2022/06/23 09:54:25;;;;;;;3.20;2.65;;;25.50;99.90;;;;;;6195313;23;20401;-83
2022/06/23 09:57:15;;;;;;;3.38;1.88;;;25.60;99.80;;;;;;6246875;23;20393;-84
2022/06/23 09:59:44;;;;;;;2.80;1.85;;;25.60;99.10;;;;;;6246065;23;20016;-83
2022/06/23 10:02:39;;;;;;;2.03;1.92;;;25.60;99.00;;;;;;6219823;23;20060;-84
2022/06/23 10:05:28;;;;;;;3.95;1.85;;;25.60;99.10;;;;;;6194732;23;20012;-84
2022/06/23 10:07:59;;;;;;;3.40;1.80;;;25.70;98.80;;;;;;6169212;23;20016;-84
2022/06/23 10:10:31;;;;;;;3.15;1.73;;;25.70;98.40;;;;;;6220429;23;20024;-83
2022/06/23 10:13:51;;;;;;;4.50;1.85;;;25.80;97.50;;;;;;6194372;23;20051;-84
2022/06/23 10:16:38;;;;;;;1.80;1.60;;;25.80;96.90;;;;;;6095381;23;20037;-83
2022/06/23 10:19:04;;;;;;;;;;;25.80;97.20;;;;;;6186635;23;20142;-83
2022/06/23 10:21:55;;;;;;;2.25;1.52;;;25.80;96.60;;;;;;6220230;23;19951;-83
2022/06/23 10:24:52;;;;;;;3.10;1.60;;;25.90;96.80;;;;;;6219714;23;20023;-83
2022/06/23 10:27:44;;;;;;;2.63;1.50;;;26.10;97.00;;;;;;6220662;23;20426;-83
2022/06/23 10:30:21;;;;;;;4.93;1.73;;;26.10;96.40;;;;;;6193332;23;20024;-83
2022/06/23 10:32:53;;;;;;;;;;;26.20;96.60;;;;;;6247067;23;20571;-83
2022/06/23 10:35:49;;;;;;;3.58;1.80;;;26.20;95.90;;;;;;6220205;23;19915;-83
2022/06/23 10:38:46;;;;;;;3.85;1.92;;;26.30;96.40;;;;;;6219620;23;20396;-84
2022/06/23 10:41:19;;;;;;;3.13;1.90;;;26.30;95.70;;;;;;6194661;23;20095;-84
2022/06/23 10:44:03;;;;;;;2.10;1.73;;;26.50;96.00;;;;;;6247082;23;20022;-83
2022/06/23 10:46:48;;;;;;;2.20;2.00;;;26.60;95.80;;;;;;6219947;23;20016;-83
2022/06/23 10:49:28;;;;;;;4.97;1.85;;;26.60;95.50;;;;;;6219601;23;20024;-83
2022/06/23 10:52:20;;;;;;;2.58;1.85;;;26.70;95.30;;;;;;6194413;23;20514;-85
2022/06/23 10:55:00;;;;;;;4.60;1.60;;;26.70;94.70;;;;;;6195150;23;20400;-83
2022/06/23 10:57:44;;;;;;;1.98;1.63;;;26.80;95.20;;;;;;6219710;23;20016;-83
2022/06/23 11:00:12;;;;;;;2.72;1.65;;;26.90;94.90;;;;;;6219241;23;20016;-83
2022/06/23 11:02:56;;;;;;;3.60;1.80;;;26.90;94.70;;;;;;6219781;23;20063;-84
2022/06/23 11:05:27;;;;;;;2.63;1.80;;;27.00;94.80;;;;;;6194844;23;20024;-83
2022/06/23 11:08:08;;;;;;;4.35;1.60;;;27.10;94.60;;;;;;6219910;23;20437;-84
2022/06/23 11:11:18;;;;;;;3.42;1.98;;;27.30;94.40;;;;;;6219730;23;20023;-83
2022/06/23 11:13:53;;;;;;;2.97;1.80;;;27.30;93.90;;;;;;6219464;23;20012;-83
2022/06/23 11:16:32;;;;;;;2.40;1.27;;;27.40;93.70;;;;;;6219297;23;20345;-83
2022/06/23 11:19:05;;;;;;;4.65;1.60;;;27.50;93.30;;;;;;6219242;23;20023;-84
2022/06/23 11:22:08;;;;;;;2.80;1.40;;;27.60;93.20;;;;;;6246445;23;20027;-84
2022/06/23 11:25:08;;;;;;;4.53;1.38;;;27.80;91.80;;;;;;6219557;23;20499;-83
2022/06/23 11:27:42;;;;;;;2.38;1.63;;;27.90;91.50;;;;;;6175219;23;20063;-83
2022/06/23 11:30:08;;;;;;;2.97;1.70;;;28.00;91.60;;;;;;6245401;23;20020;-83
2022/06/23 11:32:58;;;;;;;2.60;1.92;;;28.00;91.30;;;;;;6219677;23;20318;-83
2022/06/23 11:35:59;;;;;;;2.70;1.50;;;28.00;91.90;;;;;;6219996;23;20369;-83
2022/06/23 11:38:46;;;;;;;5.70;1.70;;;28.10;91.60;;;;;;6070444;23;20050;-83
2022/06/23 11:41:30;;;;;;;;;;;28.20;91.40;;;;;;6184304;23;20020;-83
2022/06/23 11:44:08;;;;;;;2.13;1.73;;;28.20;91.40;;;;;;6219349;23;19965;-83
2022/06/23 11:46:42;;;;;;;1.77;1.67;;;28.30;90.50;;;;;;6219602;23;20027;-83
2022/06/23 11:49:24;;;;;;;1.92;1.77;;;28.40;90.80;;;;;;6218933;23;20019;-83
2022/06/23 11:52:12;;;;;;;4.70;1.77;;;28.40;90.10;;;;;;6219624;23;20020;-83
2022/06/23 11:54:48;;;;;;;3.88;1.73;;;28.50;88.60;;;;;;6219371;23;20030;-84
2022/06/23 11:57:28;;;;;;;1.98;1.65;;;28.50;88.30;;;;;;6219106;23;20344;-83
2022/06/23 12:00:11;;;;;;;2.22;2.03;;;28.60;87.10;;;;;;6219341;23;20502;-83
2022/06/23 12:03:16;;;;;;;1.70;1.60;;;28.60;87.20;;;;;;6246150;23;20078;-83
2022/06/23 12:05:49;;;;;;;1.92;1.60;;;28.70;84.00;;;;;;6225614;23;20429;-84
2022/06/23 12:08:24;;;;;;;2.42;1.40;;;28.70;86.10;;;;;;6245535;23;20082;-83
2022/06/23 12:10:50;;;;;;;3.17;1.42;;;28.80;85.90;;;;;;6194109;23;20020;-84
2022/06/23 12:13:16;;;;;;;1.45;1.20;;;28.90;85.30;;;;;;6245421;23;20019;-84
2022/06/23 12:15:45;;;;;;;2.33;1.55;;;28.90;85.20;;;;;;6219223;23;20409;-83
2022/06/23 12:18:23;;;;;;;3.28;1.75;;;29.00;84.50;;;;;;6218752;23;20024;-83
2022/06/23 12:20:57;;;;;;;9.07;1.83;;;29.10;85.20;;;;;;6245878;23;20016;-83
2022/06/23 12:23:31;;;;;;;2.53;1.33;;;29.10;83.10;;;;;;6218853;23;20024;-83
2022/06/23 12:26:22;;;;;;;1.77;1.65;;;29.20;83.40;;;;;;6219090;23;20019;-84
2022/06/23 12:29:00;;;;;;;2.22;1.63;;;29.20;82.50;;;;;;6246106;23;20094;-83
2022/06/23 12:31:49;;;;;;;6.28;1.58;;;29.30;81.90;;;;;;6218614;23;20016;-83
2022/06/23 12:34:26;;;;;;;4.10;1.50;;;29.30;81.90;;;;;;6218570;23;20024;-83
2022/06/23 12:37:13;;;;;;;2.20;1.75;;;29.40;81.00;;;;;;6219296;23;20391;-83
2022/06/23 12:39:41;;;;;;;2.13;1.33;;;29.40;81.10;;;;;;6245936;23;20016;-83
2022/06/23 12:42:31;;;;;;;1.73;1.63;;;29.50;80.70;;;;;;6218512;23;20020;-83
2022/06/23 12:45:15;;;;;;;1.67;1.58;;;29.60;79.80;;;;;;6219143;23;20016;-83
2022/06/23 12:47:40;;;;;;;1.95;1.15;;;29.70;78.90;;;;;;6219024;23;20075;-83
2022/06/23 12:50:15;;;;;;;2.08;1.88;;;29.70;78.80;;;;;;6218655;23;20016;-90
2022/06/23 12:53:06;;;;;;;1.55;1.45;;;29.70;78.10;;;;;;6245645;23;20020;-83
2022/06/23 12:56:13;;;;;;;5.32;1.88;;;29.80;76.10;;;;;;6218555;23;20046;-83
2022/06/23 12:58:48;;;;;;;1.63;1.52;;;29.80;77.20;;;;;;6218989;23;20349;-83
2022/06/23 13:01:16;;;;;;;2.00;1.70;;;29.90;77.30;;;;;;6245135;23;20023;-83
2022/06/23 13:04:03;;;;;;;5.28;1.48;;;29.90;77.30;;;;;;6245409;23;20074;-83
2022/06/23 13:06:48;;;;;;;1.60;1.50;;;30.00;74.90;;;;;;6218190;23;20016;-83
2022/06/23 13:09:34;;;;;;;1.52;1.42;;;30.10;76.10;;;;;;6218317;23;20016;-84
2022/06/23 13:12:08;;;;;;;2.35;2.15;;;30.10;75.40;;;;;;6218886;23;20016;-83
2022/06/23 13:14:41;;;;;;;2.80;1.33;;;30.20;74.60;;;;;;6193497;23;20508;-83
2022/06/23 13:17:25;;;;;;;2.75;1.50;;;30.20;74.60;;;;;;6245602;23;20020;-83
2022/06/23 13:20:16;;;;;;;2.33;2.08;;;30.20;74.10;;;;;;6245424;23;20090;-83
2022/06/23 13:22:59;;;;;;;1.83;1.55;;;30.20;73.70;;;;;;6218508;23;20034;-83
2022/06/23 13:25:34;;;;;;;2.22;1.63;;;30.30;73.00;;;;;;6244978;23;20403;-83
2022/06/23 13:28:02;;;;;;;1.85;1.67;;;30.40;72.20;;;;;;6245365;23;20444;-83
2022/06/23 13:30:33;;;;;;;3.03;1.75;;;30.40;72.20;;;;;;6244712;23;20016;-83
2022/06/23 13:33:10;;;;;;;1.77;1.65;;;30.50;71.60;;;;;;6218670;23;20024;-83
2022/06/23 13:35:45;;;;;;;2.58;1.60;;;30.40;71.00;;;;;;6245336;23;20047;-84
2022/06/23 13:38:11;;;;;;;2.22;1.50;;;30.50;71.10;;;;;;6245571;23;20017;-83
2022/06/23 13:40:55;;;;;;;3.90;2.33;;;30.60;71.10;;;;;;6218595;23;20016;-83
2022/06/23 13:43:44;;;;;;;1.73;1.40;;;30.60;69.70;;;;;;6245128;23;20024;-83
2022/06/23 13:46:19;;;;;;;3.25;1.73;;;30.70;70.40;;;;;;6193817;23;20020;-83
2022/06/23 13:48:57;;;;;;;2.15;1.35;;;30.70;68.80;;;;;;6218970;23;20087;-83
2022/06/23 13:51:33;;;;;;;3.42;1.48;;;30.70;69.80;;;;;;6218034;23;20027;-84
2022/06/23 13:54:30;;;;;;;2.65;1.70;;;30.70;69.60;;;;;;6218618;23;20023;-83
2022/06/23 13:57:10;;;;;;;3.63;1.70;;;30.80;69.30;;;;;;6216609;23;20055;-83
2022/06/23 13:59:58;;;;;;;5.95;1.73;;;30.80;68.40;;;;;;6218272;23;20091;-84
2022/06/23 14:03:03;;;;;;;1.63;1.42;;;30.80;68.80;;;;;;6198340;23;20370;-84
2022/06/23 14:05:42;;;;;;;1.77;1.65;;;30.80;68.80;;;;;;6216815;23;20020;-84
2022/06/23 14:08:34;;;;;;;4.28;1.63;;;30.90;67.90;;;;;;6245148;23;20039;-83